Time;durP1;ratioP1;P1;durP2;ratioP2;P2;SDS_P1;SDS_P2;PMS_P1;PMS_P2;Temp;Humidity;BMP_temperature;BMP_pressure;BME280_temperature;BME280_humidity;BME280_pressure;Samples;Min_cycle;Max_cycle;Signal;HPM_P1;HPM_P2
2021/05/05 00:03:18;;;;;;;3.77;2.27;;;;;;;;;;10475849;28;20232;-68
2021/05/05 00:08:20;;;;;;;3.90;2.20;;;;;;;;;;10483604;28;20696;-68
2021/05/05 00:13:22;;;;;;;4.30;2.40;;;;;;;;;;10481596;28;20577;-70
2021/05/05 00:18:24;;;;;;;2.43;1.53;;;;;;;;;;10481805;28;20266;-70
2021/05/05 00:23:26;;;;;;;4.80;2.20;;;;;;;;;;10475299;28;20580;-69
2021/05/05 00:28:28;;;;;;;4.50;2.30;;;;;;;;;;10473820;28;20240;-69
2021/05/05 00:33:30;;;;;;;5.83;2.30;;;;;;;;;;10480587;28;20583;-69
2021/05/05 00:38:31;;;;;;;4.87;2.00;;;;;;;;;;10472920;28;20197;-69
2021/05/05 00:43:34;;;;;;;3.37;2.20;;;;;;;;;;10485214;28;20215;-70
2021/05/05 00:48:35;;;;;;;3.87;2.17;;;;;;;;;;10480619;28;20244;-69
2021/05/05 00:53:39;;;;;;;4.27;2.10;;;;;;;;;;10484474;28;20224;-69
2021/05/05 00:58:41;;;;;;;4.20;2.20;;;;;;;;;;10485010;28;20222;-69
2021/05/05 01:03:43;;;;;;;4.30;2.10;;;;;;;;;;10477932;28;20216;-69
2021/05/05 01:08:45;;;;;;;4.00;2.10;;;;;;;;;;10480836;28;20206;-69
2021/05/05 01:13:47;;;;;;;3.70;2.10;;;;;;;;;;10485702;28;20219;-69
2021/05/05 01:18:51;;;;;;;5.97;2.70;;;;;;;;;;10486397;28;20188;-69
2021/05/05 01:23:53;;;;;;;5.67;2.57;;;;;;;;;;10477220;28;20266;-69
2021/05/05 01:28:57;;;;;;;5.57;2.70;;;;;;;;;;10480849;28;20220;-69
2021/05/05 01:33:59;;;;;;;4.60;2.53;;;;;;;;;;10478236;28;20269;-70
2021/05/05 01:39:04;;;;;;;6.53;2.60;;;;;;;;;;10474478;28;20656;-69
2021/05/05 01:44:05;;;;;;;5.87;2.53;;;;;;;;;;10479630;28;20238;-69
2021/05/05 01:49:07;;;;;;;4.10;2.50;;;;;;;;;;10483794;28;20208;-68
2021/05/05 01:54:09;;;;;;;5.57;2.80;;;;;;;;;;10476531;28;20208;-68
2021/05/05 01:59:11;;;;;;;7.20;3.10;;;;;;;;;;10489627;28;20188;-69
2021/05/05 02:04:12;;;;;;;5.60;3.10;;;;;;;;;;10488544;28;20334;-69
2021/05/05 02:09:15;;;;;;;5.87;2.97;;;;;;;;;;10489323;28;20211;-70
2021/05/05 02:14:16;;;;;;;5.27;2.80;;;;;;;;;;10487584;28;20583;-70
2021/05/05 02:19:27;;;;;;;5.73;2.80;;;;;;;;;;10490126;28;20215;-72
2021/05/05 02:24:32;;;;;;;5.03;2.80;;;;;;;;;;10522181;28;20712;-70
2021/05/05 02:29:34;;;;;;;6.07;3.17;;;;;;;;;;10488340;28;20295;-69
2021/05/05 02:34:36;;;;;;;5.60;3.07;;;;;;;;;;10488340;28;20303;-70
2021/05/05 02:39:40;;;;;;;5.43;3.10;;;;;;;;;;10484574;28;20624;-70
2021/05/05 02:44:41;;;;;;;5.80;2.97;;;;;;;;;;10490799;28;20212;-69
2021/05/05 02:49:43;;;;;;;6.20;3.10;;;;;;;;;;10480476;28;20239;-69
2021/05/05 02:54:45;;;;;;;5.90;3.13;;;;;;;;;;10481616;28;20274;-70
2021/05/05 02:59:47;;;;;;;7.17;2.97;;;;;;;;;;10489637;28;20699;-69
2021/05/05 03:04:49;;;;;;;5.33;2.93;;;;;;;;;;10489614;28;20249;-69
2021/05/05 03:09:51;;;;;;;6.17;3.17;;;;;;;;;;10511137;28;20196;-69
2021/05/05 03:14:53;;;;;;;5.43;3.00;;;;;;;;;;10486717;28;20581;-70
2021/05/05 03:19:55;;;;;;;6.13;3.43;;;;;;;;;;10474959;28;20207;-68
2021/05/05 03:24:57;;;;;;;6.73;3.50;;;;;;;;;;10479565;28;20292;-69
2021/05/05 03:29:59;;;;;;;6.40;3.67;;;;;;;;;;10479599;28;20282;-68
2021/05/05 03:35:01;;;;;;;6.40;3.47;;;;;;;;;;10482718;28;20220;-69
2021/05/05 03:40:07;;;;;;;5.83;3.20;;;;;;;;;;10476862;28;20197;-69
2021/05/05 03:45:09;;;;;;;7.10;3.67;;;;;;;;;;10482980;28;20216;-69
2021/05/05 03:50:11;;;;;;;6.67;3.60;;;;;;;;;;10483703;28;20188;-69
2021/05/05 03:55:14;;;;;;;7.93;4.10;;;;;;;;;;10477624;28;20220;-71
2021/05/05 04:00:16;;;;;;;6.50;3.80;;;;;;;;;;10492336;28;20251;-70
2021/05/05 04:05:18;;;;;;;6.23;3.67;;;;;;;;;;10485295;28;20251;-70
2021/05/05 04:10:20;;;;;;;6.53;3.60;;;;;;;;;;10475645;28;20606;-70
2021/05/05 04:15:22;;;;;;;7.40;3.87;;;;;;;;;;10482242;28;20741;-70
2021/05/05 04:21:03;;;;;;;7.37;4.20;;;;;;;;;;10482727;28;20207;-69
2021/05/05 04:26:23;;;;;;;7.27;3.93;;;;;;;;;;10474707;28;20634;-69
2021/05/05 04:31:25;;;;;;;3.60;2.10;;;;;;;;;;10485439;28;20242;-69
2021/05/05 04:36:27;;;;;;;1.87;1.20;;;;;;;;;;10479316;28;20184;-69
2021/05/05 04:41:29;;;;;;;2.33;1.20;;;;;;;;;;10478402;28;20192;-69
2021/05/05 04:46:31;;;;;;;4.03;1.60;;;;;;;;;;10456040;28;20538;-71
2021/05/05 04:51:33;;;;;;;3.30;1.30;;;;;;;;;;10492920;27;20568;-69
2021/05/05 04:56:36;;;;;;;4.37;1.43;;;;;;;;;;10453071;28;20197;-69
2021/05/05 05:01:37;;;;;;;3.37;1.40;;;;;;;;;;10484983;28;20689;-70
2021/05/05 05:06:39;;;;;;;3.63;1.30;;;;;;;;;;10483918;28;20216;-70
2021/05/05 05:11:41;;;;;;;5.23;1.83;;;;;;;;;;10485199;28;20220;-69
2021/05/05 05:16:43;;;;;;;3.30;1.37;;;;;;;;;;10480921;28;20574;-69
2021/05/05 05:21:45;;;;;;;2.53;1.03;;;;;;;;;;10474944;28;20208;-70
2021/05/05 05:26:47;;;;;;;2.90;1.23;;;;;;;;;;10480359;28;20929;-70
2021/05/05 05:31:51;;;;;;;2.40;1.27;;;;;;;;;;10487505;28;20208;-70
2021/05/05 05:36:53;;;;;;;3.33;1.30;;;;;;;;;;10488817;28;20426;-69
2021/05/05 05:41:55;;;;;;;3.33;1.27;;;;;;;;;;10492463;28;20216;-69
2021/05/05 05:46:57;;;;;;;2.33;1.20;;;;;;;;;;10491802;28;20287;-69
2021/05/05 05:51:58;;;;;;;3.97;1.20;;;;;;;;;;10494097;28;20220;-69
2021/05/05 05:57:01;;;;;;;1.83;1.00;;;;;;;;;;10491117;28;20612;-70
2021/05/05 06:02:03;;;;;;;1.83;0.90;;;;;;;;;;10494632;28;20249;-70
2021/05/05 06:07:04;;;;;;;2.13;1.00;;;;;;;;;;10489171;28;20216;-69
2021/05/05 06:12:08;;;;;;;2.53;0.90;;;;;;;;;;10489828;28;20220;-69
2021/05/05 06:17:09;;;;;;;2.23;0.93;;;;;;;;;;10491991;28;20215;-70
2021/05/05 06:22:11;;;;;;;3.87;1.10;;;;;;;;;;10489799;28;20220;-70
2021/05/05 06:27:14;;;;;;;4.60;1.30;;;;;;;;;;10490083;28;20695;-70
2021/05/05 06:32:16;;;;;;;2.57;0.90;;;;;;;;;;10487589;28;20216;-71
2021/05/05 06:37:19;;;;;;;3.87;1.07;;;;;;;;;;10491943;28;20695;-68
2021/05/05 06:42:21;;;;;;;2.77;0.90;;;;;;;;;;10483879;28;20224;-68
2021/05/05 06:47:23;;;;;;;2.63;0.80;;;;;;;;;;10488659;28;20216;-69
2021/05/05 06:52:25;;;;;;;3.93;0.83;;;;;;;;;;10484701;28;20216;-71
2021/05/05 06:57:28;;;;;;;1.47;0.60;;;;;;;;;;10487164;28;20556;-70
2021/05/05 07:02:29;;;;;;;1.00;0.60;;;;;;;;;;10490346;28;20245;-71
2021/05/05 07:07:31;;;;;;;2.20;0.90;;;;;;;;;;10488738;28;20745;-70
2021/05/05 07:12:33;;;;;;;1.90;0.83;;;;;;;;;;10484537;28;20341;-70
2021/05/05 07:17:35;;;;;;;1.23;0.80;;;;;;;;;;10480524;28;20486;-70
2021/05/05 07:22:37;;;;;;;2.93;0.80;;;;;;;;;;10489833;28;20217;-69
2021/05/05 07:27:39;;;;;;;3.23;0.80;;;;;;;;;;10480693;28;20216;-68
2021/05/05 07:32:41;;;;;;;1.80;0.80;;;;;;;;;;10482362;28;20401;-69
2021/05/05 07:48:36;;;;;;;1.73;0.90;;;;;;;;;;10510103;28;20191;-68
2021/05/05 07:53:38;;;;;;;0.70;0.67;;;;;;;;;;10531231;28;20327;-70
2021/05/05 07:58:42;;;;;;;2.03;0.90;;;;;;;;;;10552375;28;20361;-69
2021/05/05 08:03:43;;;;;;;1.23;0.90;;;;;;;;;;10529364;28;20234;-70
2021/05/05 08:08:45;;;;;;;0.97;0.70;;;;;;;;;;10549053;28;20286;-71
2021/05/05 08:13:48;;;;;;;1.60;0.60;;;;;;;;;;10531863;28;20203;-67
2021/05/05 08:18:50;;;;;;;0.77;0.50;;;;;;;;;;10544002;28;20200;-69
2021/05/05 08:23:51;;;;;;;0.67;0.43;;;;;;;;;;10518190;28;20239;-68
2021/05/05 08:28:54;;;;;;;1.67;0.40;;;;;;;;;;10545619;28;20259;-70
2021/05/05 08:33:55;;;;;;;0.87;0.40;;;;;;;;;;10540885;28;20278;-69
2021/05/05 08:38:57;;;;;;;1.23;0.60;;;;;;;;;;10545996;28;21226;-70
2021/05/05 08:44:00;;;;;;;0.67;0.40;;;;;;;;;;10522936;28;20219;-69
2021/05/05 08:49:01;;;;;;;1.10;0.50;;;;;;;;;;10542508;28;20187;-70
2021/05/05 08:54:03;;;;;;;1.47;0.50;;;;;;;;;;10513835;28;20219;-70
2021/05/05 08:59:07;;;;;;;2.57;1.00;;;;;;;;;;10509686;28;20212;-69
2021/05/05 09:04:09;;;;;;;2.73;1.20;;;;;;;;;;10507200;28;20264;-68
2021/05/05 09:09:10;;;;;;;1.37;0.63;;;;;;;;;;10487153;28;20283;-69
2021/05/05 09:14:18;;;;;;;1.00;0.50;;;;;;;;;;10526742;28;20212;-70
2021/05/05 09:19:19;;;;;;;1.53;0.70;;;;;;;;;;10514589;28;20196;-69
2021/05/05 09:24:23;;;;;;;1.40;0.50;;;;;;;;;;10507090;28;20231;-69
2021/05/05 09:29:38;;;;;;;1.60;1.00;;;;;;;;;;10531621;28;20304;-69
2021/05/05 09:34:40;;;;;;;1.70;0.87;;;;;;;;;;10501217;28;20273;-69
2021/05/05 09:39:42;;;;;;;2.57;1.20;;;;;;;;;;10509063;28;20211;-69
2021/05/05 09:44:52;;;;;;;2.77;1.10;;;;;;;;;;10515534;28;20618;-67
2021/05/05 09:49:54;;;;;;;2.60;0.93;;;;;;;;;;10503532;28;20180;-69
2021/05/05 09:54:59;;;;;;;2.27;1.10;;;;;;;;;;10516518;28;20222;-69
2021/05/05 10:00:03;;;;;;;1.27;0.83;;;;;;;;;;10494285;28;20640;-70
2021/05/05 10:05:06;;;;;;;1.03;0.60;;;;;;;;;;10513098;28;20216;-69
2021/05/05 10:10:08;;;;;;;3.00;1.30;;;;;;;;;;10522533;28;20518;-68
2021/05/05 10:15:11;;;;;;;2.03;0.90;;;;;;;;;;10508048;28;20273;-69
2021/05/05 10:20:14;;;;;;;1.60;0.80;;;;;;;;;;10522937;28;20299;-69
2021/05/05 10:25:17;;;;;;;1.20;0.87;;;;;;;;;;10508095;28;20291;-69
2021/05/05 10:30:21;;;;;;;0.50;0.37;;;;;;;;;;10522635;28;20223;-69
2021/05/05 10:35:36;;;;;;;0.70;0.70;;;;;;;;;;10515498;28;20211;-69
2021/05/05 10:40:37;;;;;;;0.47;0.47;;;;;;;;;;10517211;28;20254;-70
2021/05/05 10:45:41;;;;;;;2.80;1.00;;;;;;;;;;10518303;28;20619;-68
2021/05/05 10:50:58;;;;;;;2.67;0.87;;;;;;;;;;10516457;28;20216;-69
2021/05/05 10:56:00;;;;;;;4.50;1.40;;;;;;;;;;10521581;28;20214;-69
2021/05/05 11:01:05;;;;;;;4.97;1.53;;;;;;;;;;10495260;28;20230;-69
2021/05/05 11:06:21;;;;;;;2.93;1.27;;;;;;;;;;10506262;28;20700;-69
2021/05/05 11:11:33;;;;;;;2.37;1.00;;;;;;;;;;10495775;28;20640;-70
2021/05/05 11:16:50;;;;;;;1.33;0.80;;;;;;;;;;10509351;28;20204;-68
2021/05/05 11:21:52;;;;;;;1.40;1.00;;;;;;;;;;10515492;28;20223;-69
2021/05/05 11:26:54;;;;;;;2.60;1.17;;;;;;;;;;10490168;28;20203;-69
2021/05/05 11:31:59;;;;;;;0.83;0.67;;;;;;;;;;10518573;28;20212;-69
2021/05/05 11:37:06;;;;;;;4.20;1.70;;;;;;;;;;10502668;28;20192;-69
2021/05/05 11:42:11;;;;;;;5.27;1.50;;;;;;;;;;10504805;28;20298;-70
2021/05/05 11:47:20;;;;;;;3.63;1.30;;;;;;;;;;10497995;28;20293;-70
2021/05/05 11:52:25;;;;;;;2.63;0.90;;;;;;;;;;10505423;28;20204;-70
2021/05/05 11:57:28;;;;;;;3.70;1.27;;;;;;;;;;10505750;28;20669;-70
2021/05/05 12:02:29;;;;;;;3.03;1.50;;;;;;;;;;10507221;28;20297;-71
2021/05/05 12:07:32;;;;;;;3.03;1.20;;;;;;;;;;10490758;28;20303;-70
2021/05/05 12:12:34;;;;;;;3.33;1.40;;;;;;;;;;10481618;28;20627;-70
2021/05/05 12:17:41;;;;;;;3.33;1.60;;;;;;;;;;10524090;28;20198;-70
2021/05/05 12:22:52;;;;;;;2.53;1.20;;;;;;;;;;10506007;28;20385;-69
2021/05/05 12:28:11;;;;;;;1.50;1.00;;;;;;;;;;10521789;28;20191;-70
2021/05/05 12:33:14;;;;;;;5.70;1.30;;;;;;;;;;10519797;28;20504;-68
2021/05/05 12:38:17;;;;;;;4.47;1.63;;;;;;;;;;10525239;28;20223;-70
2021/05/05 12:43:21;;;;;;;2.50;1.20;;;;;;;;;;10521100;28;20298;-70
2021/05/05 12:48:28;;;;;;;5.70;1.77;;;;;;;;;;10493743;28;20575;-70
2021/05/05 12:53:44;;;;;;;2.67;1.10;;;;;;;;;;10518792;28;20721;-69
2021/05/05 12:58:48;;;;;;;1.30;0.97;;;;;;;;;;10514534;28;20191;-69
2021/05/05 13:03:49;;;;;;;4.47;1.47;;;;;;;;;;10530734;28;20226;-71
2021/05/05 13:08:53;;;;;;;2.47;1.10;;;;;;;;;;10495934;28;20207;-71
2021/05/05 13:13:58;;;;;;;1.40;1.00;;;;;;;;;;10526794;28;20207;-70
2021/05/05 13:29:46;;;;;;;2.07;1.00;;;;;;;;;;10509564;28;20246;-70
2021/05/05 13:34:47;;;;;;;3.70;1.20;;;;;;;;;;10509936;28;20220;-68
2021/05/05 13:39:50;;;;;;;2.20;1.20;;;;;;;;;;10493924;28;20238;-69
2021/05/05 13:44:55;;;;;;;4.63;1.50;;;;;;;;;;10471554;28;20215;-69
2021/05/05 13:49:58;;;;;;;0.97;0.83;;;;;;;;;;10470629;28;20196;-69
2021/05/05 13:55:01;;;;;;;2.63;0.70;;;;;;;;;;10495612;28;20625;-70
2021/05/05 14:00:05;;;;;;;1.83;0.90;;;;;;;;;;10502723;28;20219;-69
2021/05/05 14:05:07;;;;;;;2.20;0.90;;;;;;;;;;10492495;28;20223;-69
2021/05/05 14:10:11;;;;;;;2.80;1.00;;;;;;;;;;10520676;28;20544;-69
2021/05/05 14:15:13;;;;;;;6.53;1.40;;;;;;;;;;10504998;28;20208;-68
2021/05/05 14:20:15;;;;;;;6.80;0.83;;;;;;;;;;10517516;28;20291;-69
2021/05/05 14:25:18;;;;;;;4.10;1.10;;;;;;;;;;10507854;28;20222;-70
2021/05/05 14:30:21;;;;;;;3.60;1.37;;;;;;;;;;10517086;28;20201;-71
2021/05/05 14:35:22;;;;;;;4.10;1.30;;;;;;;;;;10513716;28;20239;-69
2021/05/05 14:40:25;;;;;;;5.47;2.10;;;;;;;;;;10518623;28;20260;-70
2021/05/05 14:45:42;;;;;;;2.90;1.40;;;;;;;;;;10520760;28;20283;-70
2021/05/05 14:50:46;;;;;;;3.60;1.40;;;;;;;;;;10514485;28;20176;-69
2021/05/05 14:55:49;;;;;;;3.00;1.10;;;;;;;;;;10489934;28;20212;-70
2021/05/05 15:00:53;;;;;;;4.23;1.20;;;;;;;;;;10513683;28;20290;-70
2021/05/05 15:05:57;;;;;;;3.40;1.20;;;;;;;;;;10493418;28;21938;-68
2021/05/05 15:11:19;;;;;;;2.03;1.03;;;;;;;;;;10511984;28;20613;-70
2021/05/05 15:16:59;;;;;;;2.87;1.33;;;;;;;;;;10492691;28;20265;-69
2021/05/05 15:38:08;;;;;;;3.93;0.97;;;;;;;;;;10492105;28;20302;-71
2021/05/05 15:43:48;;;;;;;1.80;0.80;;;;;;;;;;10485878;28;20223;-68
2021/05/05 15:48:49;;;;;;;1.73;0.57;;;;;;;;;;10509394;28;20199;-68
2021/05/05 15:53:53;;;;;;;0.90;0.70;;;;;;;;;;10504835;28;20218;-67
2021/05/05 15:58:59;;;;;;;2.17;0.93;;;;;;;;;;10508291;28;20198;-69
2021/05/05 16:04:34;;;;;;;1.73;0.90;;;;;;;;;;10503266;28;20246;-68
2021/05/05 16:09:52;;;;;;;2.13;0.77;;;;;;;;;;10506749;28;20273;-69
2021/05/05 16:15:04;;;;;;;2.53;0.90;;;;;;;;;;10489120;28;20215;-69
2021/05/05 16:20:10;;;;;;;1.93;0.80;;;;;;;;;;10516551;28;20207;-67
2021/05/05 16:25:20;;;;;;;2.50;0.90;;;;;;;;;;10507522;28;20302;-68
2021/05/05 16:52:03;;;;;;;2.03;0.87;;;;;;;;;;10493986;28;20234;-69
2021/05/05 16:57:07;;;;;;;2.00;0.97;;;;;;;;;;10488635;28;20215;-70
2021/05/05 17:12:59;;;;;;;2.93;0.80;;;;;;;;;;10499960;28;20318;-68
2021/05/05 17:18:11;;;;;;;2.97;1.00;;;;;;;;;;10477948;28;20204;-68
2021/05/05 17:23:18;;;;;;;3.30;1.00;;;;;;;;;;10506966;28;20307;-70
2021/05/05 17:28:35;;;;;;;2.87;1.17;;;;;;;;;;10517701;28;20196;-67
2021/05/05 17:50:19;;;;;;;2.33;0.90;;;;;;;;;;10474761;28;20287;-69
2021/05/05 18:11:35;;;;;;;5.80;1.60;;;;;;;;;;10469231;28;20203;-69
2021/05/05 18:16:49;;;;;;;3.87;1.20;;;;;;;;;;10512883;28;20244;-69
2021/05/05 18:21:59;;;;;;;2.23;1.03;;;;;;;;;;10504509;28;20640;-70
2021/05/05 18:27:07;;;;;;;2.93;1.20;;;;;;;;;;10515193;28;20191;-69
2021/05/05 18:32:12;;;;;;;3.87;1.50;;;;;;;;;;10503083;28;20330;-68
2021/05/05 18:37:35;;;;;;;3.23;1.27;;;;;;;;;;10515231;28;20199;-70
2021/05/05 18:42:44;;;;;;;1.70;1.00;;;;;;;;;;10488907;28;20227;-70
2021/05/05 19:10:48;;;;;;;5.57;1.60;;;;;;;;;;10465448;28;20202;-69
2021/05/05 20:24:48;;;;;;;2.23;0.83;;;;;;;;;;10481492;28;20297;-68
2021/05/05 20:41:35;;;;;;;0.80;0.50;;;;;;;;;;10490419;28;20296;-68
2021/05/05 23:11:40;;;;;;;3.53;1.00;;;;;;;;;;10519121;28;20645;-68
2021/05/05 23:22:08;;;;;;;2.23;1.20;;;;;;;;;;10482766;28;20211;-68
2021/05/05 23:27:16;;;;;;;4.50;1.13;;;;;;;;;;10474715;28;20188;-69
2021/05/05 23:59:15;;;;;;;3.13;0.90;;;;;;;;;;10491178;28;20216;-69
